sensor_id;sensor_type;location;lat;lon;timestamp;P1;durP1;ratioP1;P2;durP2;ratioP2
75446;SDS011;64024;55.820;37.574;2023-04-02T00:00:30;9.98;;;7.55;;
75446;SDS011;64024;55.820;37.574;2023-04-02T00:03:00;9.38;;;7.40;;
75446;SDS011;64024;55.820;37.574;2023-04-02T00:05:36;9.10;;;8.23;;
75446;SDS011;64024;55.820;37.574;2023-04-02T00:08:26;8.55;;;6.40;;
75446;SDS011;64024;55.820;37.574;2023-04-02T00:11:03;9.80;;;7.18;;
75446;SDS011;64024;55.820;37.574;2023-04-02T00:13:43;8.63;;;7.72;;
75446;SDS011;64024;55.820;37.574;2023-04-02T00:16:12;10.38;;;8.10;;
75446;SDS011;64024;55.820;37.574;2023-04-02T00:18:49;10.82;;;8.25;;
75446;SDS011;64024;55.820;37.574;2023-04-02T00:21:20;8.23;;;7.07;;
75446;SDS011;64024;55.820;37.574;2023-04-02T00:23:48;8.95;;;7.88;;
75446;SDS011;64024;55.820;37.574;2023-04-02T00:26:19;8.90;;;7.13;;
75446;SDS011;64024;55.820;37.574;2023-04-02T00:28:47;8.90;;;7.00;;
75446;SDS011;64024;55.820;37.574;2023-04-02T00:31:15;9.48;;;8.05;;
75446;SDS011;64024;55.820;37.574;2023-04-02T00:33:43;9.90;;;8.02;;
75446;SDS011;64024;55.820;37.574;2023-04-02T00:38:35;6.60;;;5.93;;
75446;SDS011;64024;55.820;37.574;2023-04-02T00:41:03;8.45;;;7.60;;
75446;SDS011;64024;55.820;37.574;2023-04-02T00:43:31;8.27;;;7.45;;
75446;SDS011;64024;55.820;37.574;2023-04-02T00:46:02;9.23;;;8.25;;
75446;SDS011;64024;55.820;37.574;2023-04-02T00:51:43;9.57;;;8.20;;
75446;SDS011;64024;55.820;37.574;2023-04-02T00:54:13;9.35;;;8.38;;
75446;SDS011;64024;55.820;37.574;2023-04-02T00:56:47;8.00;;;7.25;;
75446;SDS011;64024;55.820;37.574;2023-04-02T00:59:23;10.77;;;9.45;;
75446;SDS011;64024;55.820;37.574;2023-04-02T01:04:39;8.88;;;8.02;;
75446;SDS011;64024;55.820;37.574;2023-04-02T01:07:07;9.98;;;8.85;;
75446;SDS011;64024;55.820;37.574;2023-04-02T01:10:02;10.18;;;9.18;;
75446;SDS011;64024;55.820;37.574;2023-04-02T01:12:47;9.32;;;8.38;;
75446;SDS011;64024;55.820;37.574;2023-04-02T01:15:19;11.65;;;8.93;;
75446;SDS011;64024;55.820;37.574;2023-04-02T01:18:06;10.38;;;9.00;;
75446;SDS011;64024;55.820;37.574;2023-04-02T01:23:37;9.38;;;8.48;;
75446;SDS011;64024;55.820;37.574;2023-04-02T01:26:17;9.05;;;8.15;;
75446;SDS011;64024;55.820;37.574;2023-04-02T01:31:25;12.15;;;9.13;;
75446;SDS011;64024;55.820;37.574;2023-04-02T01:33:52;9.73;;;8.82;;
75446;SDS011;64024;55.820;37.574;2023-04-02T01:42:11;9.50;;;8.50;;
75446;SDS011;64024;55.820;37.574;2023-04-02T01:44:41;11.10;;;10.00;;
75446;SDS011;64024;55.820;37.574;2023-04-02T01:47:21;11.30;;;8.85;;
75446;SDS011;64024;55.820;37.574;2023-04-02T01:49:56;11.75;;;9.57;;
75446;SDS011;64024;55.820;37.574;2023-04-02T01:52:37;11.07;;;10.07;;
75446;SDS011;64024;55.820;37.574;2023-04-02T01:55:06;10.70;;;9.60;;
75446;SDS011;64024;55.820;37.574;2023-04-02T01:57:33;10.10;;;9.02;;
75446;SDS011;64024;55.820;37.574;2023-04-02T02:00:00;10.85;;;9.73;;
75446;SDS011;64024;55.820;37.574;2023-04-02T02:02:32;9.88;;;8.40;;
75446;SDS011;64024;55.820;37.574;2023-04-02T02:04:58;11.02;;;9.45;;
75446;SDS011;64024;55.820;37.574;2023-04-02T02:07:23;12.05;;;10.18;;
75446;SDS011;64024;55.820;37.574;2023-04-02T02:09:50;10.95;;;9.93;;
75446;SDS011;64024;55.820;37.574;2023-04-02T02:12:17;12.07;;;9.75;;
75446;SDS011;64024;55.820;37.574;2023-04-02T02:14:49;10.52;;;9.48;;
75446;SDS011;64024;55.820;37.574;2023-04-02T02:17:17;12.00;;;9.18;;
75446;SDS011;64024;55.820;37.574;2023-04-02T02:19:51;12.82;;;9.68;;
75446;SDS011;64024;55.820;37.574;2023-04-02T02:22:24;9.80;;;8.80;;
75446;SDS011;64024;55.820;37.574;2023-04-02T02:24:51;10.30;;;9.15;;
75446;SDS011;64024;55.820;37.574;2023-04-02T02:30:09;10.93;;;9.80;;
75446;SDS011;64024;55.820;37.574;2023-04-02T02:32:46;10.30;;;9.30;;
75446;SDS011;64024;55.820;37.574;2023-04-02T02:35:24;11.13;;;9.98;;
75446;SDS011;64024;55.820;37.574;2023-04-02T02:37:56;9.70;;;8.70;;
75446;SDS011;64024;55.820;37.574;2023-04-02T02:40:34;10.73;;;9.63;;
75446;SDS011;64024;55.820;37.574;2023-04-02T02:43:05;12.00;;;10.80;;
75446;SDS011;64024;55.820;37.574;2023-04-02T02:45:36;9.93;;;8.98;;
75446;SDS011;64024;55.820;37.574;2023-04-02T02:48:07;10.73;;;9.60;;
75446;SDS011;64024;55.820;37.574;2023-04-02T02:50:37;10.40;;;9.35;;
75446;SDS011;64024;55.820;37.574;2023-04-02T02:53:12;10.43;;;9.35;;
75446;SDS011;64024;55.820;37.574;2023-04-02T02:55:42;11.07;;;9.88;;
75446;SDS011;64024;55.820;37.574;2023-04-02T02:58:09;11.15;;;9.77;;
75446;SDS011;64024;55.820;37.574;2023-04-02T03:00:39;11.55;;;10.35;;
75446;SDS011;64024;55.820;37.574;2023-04-02T03:03:14;11.05;;;9.40;;
75446;SDS011;64024;55.820;37.574;2023-04-02T03:05:43;10.23;;;9.23;;
75446;SDS011;64024;55.820;37.574;2023-04-02T03:08:17;11.38;;;10.27;;
75446;SDS011;64024;55.820;37.574;2023-04-02T03:16:01;11.50;;;10.30;;
75446;SDS011;64024;55.820;37.574;2023-04-02T03:21:20;10.80;;;9.70;;
75446;SDS011;64024;55.820;37.574;2023-04-02T03:24:01;10.20;;;9.30;;
75446;SDS011;64024;55.820;37.574;2023-04-02T03:26:33;12.38;;;11.20;;
75446;SDS011;64024;55.820;37.574;2023-04-02T03:29:17;11.70;;;8.32;;
75446;SDS011;64024;55.820;37.574;2023-04-02T03:31:56;10.50;;;9.40;;
75446;SDS011;64024;55.820;37.574;2023-04-02T03:40:16;10.70;;;8.75;;
75446;SDS011;64024;55.820;37.574;2023-04-02T03:42:51;10.32;;;8.85;;
75446;SDS011;64024;55.820;37.574;2023-04-02T03:45:28;11.02;;;9.65;;
75446;SDS011;64024;55.820;37.574;2023-04-02T03:50:54;10.80;;;9.57;;
75446;SDS011;64024;55.820;37.574;2023-04-02T03:53:25;10.50;;;9.13;;
75446;SDS011;64024;55.820;37.574;2023-04-02T03:55:53;10.70;;;9.55;;
75446;SDS011;64024;55.820;37.574;2023-04-02T04:04:00;10.50;;;8.82;;
75446;SDS011;64024;55.820;37.574;2023-04-02T04:06:32;10.18;;;9.20;;
75446;SDS011;64024;55.820;37.574;2023-04-02T04:15:06;10.23;;;7.38;;
75446;SDS011;64024;55.820;37.574;2023-04-02T04:17:54;10.80;;;9.70;;
75446;SDS011;64024;55.820;37.574;2023-04-02T04:23:19;10.25;;;9.23;;
75446;SDS011;64024;55.820;37.574;2023-04-02T04:26:37;10.77;;;9.68;;
75446;SDS011;64024;55.820;37.574;2023-04-02T04:31:26;11.02;;;9.80;;
75446;SDS011;64024;55.820;37.574;2023-04-02T04:33:59;11.00;;;9.90;;
75446;SDS011;64024;55.820;37.574;2023-04-02T04:36:39;10.13;;;9.23;;
75446;SDS011;64024;55.820;37.574;2023-04-02T04:39:45;11.13;;;9.00;;
75446;SDS011;64024;55.820;37.574;2023-04-02T04:42:28;12.45;;;10.48;;
75446;SDS011;64024;55.820;37.574;2023-04-02T04:47:27;9.75;;;8.20;;
75446;SDS011;64024;55.820;37.574;2023-04-02T04:50:46;9.25;;;8.18;;
75446;SDS011;64024;55.820;37.574;2023-04-02T04:52:52;11.43;;;10.15;;
75446;SDS011;64024;55.820;37.574;2023-04-02T04:55:20;11.15;;;9.73;;
75446;SDS011;64024;55.820;37.574;2023-04-02T04:57:58;9.57;;;8.57;;
75446;SDS011;64024;55.820;37.574;2023-04-02T05:03:15;9.18;;;8.27;;
75446;SDS011;64024;55.820;37.574;2023-04-02T05:08:56;9.18;;;8.25;;
75446;SDS011;64024;55.820;37.574;2023-04-02T05:11:31;9.15;;;7.90;;
75446;SDS011;64024;55.820;37.574;2023-04-02T05:14:11;8.65;;;7.85;;
75446;SDS011;64024;55.820;37.574;2023-04-02T05:16:55;9.55;;;7.57;;
75446;SDS011;64024;55.820;37.574;2023-04-02T05:25:25;9.48;;;8.57;;
75446;SDS011;64024;55.820;37.574;2023-04-02T05:28:13;10.23;;;9.13;;
75446;SDS011;64024;55.820;37.574;2023-04-02T05:30:48;9.50;;;8.60;;
75446;SDS011;64024;55.820;37.574;2023-04-02T05:33:22;10.95;;;9.23;;
75446;SDS011;64024;55.820;37.574;2023-04-02T05:36:02;10.48;;;8.30;;
75446;SDS011;64024;55.820;37.574;2023-04-02T05:38:32;10.77;;;7.93;;
75446;SDS011;64024;55.820;37.574;2023-04-02T05:43:39;9.20;;;8.30;;
75446;SDS011;64024;55.820;37.574;2023-04-02T05:46:19;9.88;;;8.93;;
75446;SDS011;64024;55.820;37.574;2023-04-02T05:48:53;9.63;;;8.73;;
75446;SDS011;64024;55.820;37.574;2023-04-02T05:51:23;10.40;;;9.32;;
75446;SDS011;64024;55.820;37.574;2023-04-02T05:53:55;9.65;;;8.65;;
75446;SDS011;64024;55.820;37.574;2023-04-02T05:56:42;9.20;;;8.23;;
75446;SDS011;64024;55.820;37.574;2023-04-02T05:59:20;9.45;;;8.57;;
75446;SDS011;64024;55.820;37.574;2023-04-02T06:01:56;8.93;;;8.02;;
75446;SDS011;64024;55.820;37.574;2023-04-02T06:04:33;9.32;;;8.43;;
75446;SDS011;64024;55.820;37.574;2023-04-02T06:07:14;10.68;;;9.68;;
75446;SDS011;64024;55.820;37.574;2023-04-02T06:09:52;9.80;;;8.90;;
75446;SDS011;64024;55.820;37.574;2023-04-02T06:12:42;9.85;;;8.95;;
75446;SDS011;64024;55.820;37.574;2023-04-02T06:15:12;10.23;;;9.23;;
75446;SDS011;64024;55.820;37.574;2023-04-02T06:17:58;10.07;;;9.10;;
75446;SDS011;64024;55.820;37.574;2023-04-02T06:22:54;9.18;;;8.27;;
75446;SDS011;64024;55.820;37.574;2023-04-02T06:25:36;9.20;;;8.40;;
75446;SDS011;64024;55.820;37.574;2023-04-02T06:28:08;10.02;;;9.05;;
75446;SDS011;64024;55.820;37.574;2023-04-02T06:30:38;9.23;;;8.35;;
75446;SDS011;64024;55.820;37.574;2023-04-02T06:33:07;10.82;;;9.73;;
75446;SDS011;64024;55.820;37.574;2023-04-02T06:35:37;10.63;;;9.52;;
75446;SDS011;64024;55.820;37.574;2023-04-02T06:38:05;10.68;;;9.57;;
75446;SDS011;64024;55.820;37.574;2023-04-02T06:40:46;10.38;;;9.38;;
75446;SDS011;64024;55.820;37.574;2023-04-02T06:43:25;11.73;;;10.60;;
75446;SDS011;64024;55.820;37.574;2023-04-02T06:46:00;10.73;;;9.75;;
75446;SDS011;64024;55.820;37.574;2023-04-02T06:48:31;11.10;;;10.00;;
75446;SDS011;64024;55.820;37.574;2023-04-02T06:51:07;11.40;;;9.30;;
75446;SDS011;64024;55.820;37.574;2023-04-02T06:53:36;10.40;;;9.40;;
75446;SDS011;64024;55.820;37.574;2023-04-02T06:56:15;11.10;;;10.10;;
75446;SDS011;64024;55.820;37.574;2023-04-02T06:58:48;11.68;;;10.07;;
75446;SDS011;64024;55.820;37.574;2023-04-02T07:01:14;12.63;;;11.27;;
75446;SDS011;64024;55.820;37.574;2023-04-02T07:03:45;12.20;;;11.07;;
75446;SDS011;64024;55.820;37.574;2023-04-02T07:06:15;10.10;;;9.15;;
75446;SDS011;64024;55.820;37.574;2023-04-02T07:08:43;12.95;;;11.75;;
75446;SDS011;64024;55.820;37.574;2023-04-02T07:11:13;11.45;;;10.23;;
75446;SDS011;64024;55.820;37.574;2023-04-02T07:13:41;11.80;;;10.65;;
75446;SDS011;64024;55.820;37.574;2023-04-02T07:16:12;11.15;;;10.05;;
75446;SDS011;64024;55.820;37.574;2023-04-02T07:18:40;12.32;;;11.02;;
75446;SDS011;64024;55.820;37.574;2023-04-02T07:21:07;11.43;;;10.32;;
75446;SDS011;64024;55.820;37.574;2023-04-02T07:23:33;11.90;;;10.55;;
75446;SDS011;64024;55.820;37.574;2023-04-02T07:25:59;13.13;;;11.75;;
75446;SDS011;64024;55.820;37.574;2023-04-02T07:28:26;13.18;;;11.30;;
75446;SDS011;64024;55.820;37.574;2023-04-02T07:30:53;12.63;;;11.32;;
75446;SDS011;64024;55.820;37.574;2023-04-02T07:33:21;11.77;;;10.48;;
75446;SDS011;64024;55.820;37.574;2023-04-02T07:35:49;11.45;;;10.40;;
75446;SDS011;64024;55.820;37.574;2023-04-02T07:38:16;12.73;;;11.52;;
75446;SDS011;64024;55.820;37.574;2023-04-02T07:40:42;11.55;;;10.43;;
75446;SDS011;64024;55.820;37.574;2023-04-02T07:43:08;11.55;;;10.45;;
75446;SDS011;64024;55.820;37.574;2023-04-02T07:45:34;11.65;;;10.45;;
75446;SDS011;64024;55.820;37.574;2023-04-02T07:48:04;13.13;;;10.95;;
75446;SDS011;64024;55.820;37.574;2023-04-02T07:50:31;11.85;;;10.65;;
75446;SDS011;64024;55.820;37.574;2023-04-02T07:52:57;13.43;;;12.15;;
75446;SDS011;64024;55.820;37.574;2023-04-02T07:55:23;13.13;;;11.75;;
75446;SDS011;64024;55.820;37.574;2023-04-02T07:57:50;12.18;;;11.07;;
75446;SDS011;64024;55.820;37.574;2023-04-02T08:00:18;12.73;;;11.40;;
75446;SDS011;64024;55.820;37.574;2023-04-02T08:02:45;12.82;;;11.52;;
75446;SDS011;64024;55.820;37.574;2023-04-02T08:05:11;11.57;;;10.50;;
75446;SDS011;64024;55.820;37.574;2023-04-02T08:07:37;12.93;;;11.57;;
75446;SDS011;64024;55.820;37.574;2023-04-02T08:10:04;11.60;;;10.40;;
75446;SDS011;64024;55.820;37.574;2023-04-02T08:12:32;11.73;;;10.55;;
75446;SDS011;64024;55.820;37.574;2023-04-02T08:14:57;11.70;;;10.55;;
75446;SDS011;64024;55.820;37.574;2023-04-02T08:17:23;12.57;;;11.20;;
75446;SDS011;64024;55.820;37.574;2023-04-02T08:19:48;11.77;;;10.57;;
75446;SDS011;64024;55.820;37.574;2023-04-02T08:22:15;11.50;;;10.40;;
75446;SDS011;64024;55.820;37.574;2023-04-02T08:24:41;11.98;;;10.77;;
75446;SDS011;64024;55.820;37.574;2023-04-02T08:27:06;11.50;;;10.40;;
75446;SDS011;64024;55.820;37.574;2023-04-02T08:29:32;10.73;;;9.68;;
75446;SDS011;64024;55.820;37.574;2023-04-02T08:31:58;9.45;;;8.45;;
75446;SDS011;64024;55.820;37.574;2023-04-02T08:34:24;11.30;;;10.00;;
75446;SDS011;64024;55.820;37.574;2023-04-02T08:36:50;11.10;;;10.00;;
75446;SDS011;64024;55.820;37.574;2023-04-02T08:39:20;10.90;;;9.80;;
75446;SDS011;64024;55.820;37.574;2023-04-02T08:41:53;13.77;;;11.07;;
75446;SDS011;64024;55.820;37.574;2023-04-02T08:47:05;11.27;;;9.98;;
75446;SDS011;64024;55.820;37.574;2023-04-02T08:49:43;9.77;;;8.88;;
75446;SDS011;64024;55.820;37.574;2023-04-02T08:52:26;10.65;;;9.55;;
75446;SDS011;64024;55.820;37.574;2023-04-02T08:54:54;11.10;;;9.45;;
75446;SDS011;64024;55.820;37.574;2023-04-02T09:03:18;10.68;;;9.70;;
75446;SDS011;64024;55.820;37.574;2023-04-02T09:05:42;10.55;;;9.55;;
75446;SDS011;64024;55.820;37.574;2023-04-02T09:08:17;11.23;;;10.13;;
75446;SDS011;64024;55.820;37.574;2023-04-02T09:10:56;10.82;;;9.73;;
75446;SDS011;64024;55.820;37.574;2023-04-02T09:13:26;9.90;;;8.85;;
75446;SDS011;64024;55.820;37.574;2023-04-02T09:16:01;9.95;;;9.07;;
75446;SDS011;64024;55.820;37.574;2023-04-02T09:18:29;9.35;;;8.45;;
75446;SDS011;64024;55.820;37.574;2023-04-02T09:20:57;9.63;;;8.68;;
75446;SDS011;64024;55.820;37.574;2023-04-02T09:23:25;9.52;;;8.60;;
75446;SDS011;64024;55.820;37.574;2023-04-02T09:25:55;10.38;;;9.27;;
75446;SDS011;64024;55.820;37.574;2023-04-02T09:28:20;9.57;;;8.63;;
75446;SDS011;64024;55.820;37.574;2023-04-02T09:33:43;10.57;;;9.57;;
75446;SDS011;64024;55.820;37.574;2023-04-02T09:36:33;9.48;;;8.57;;
75446;SDS011;64024;55.820;37.574;2023-04-02T09:41:30;9.77;;;8.65;;
75446;SDS011;64024;55.820;37.574;2023-04-02T09:46:56;9.50;;;6.95;;
75446;SDS011;64024;55.820;37.574;2023-04-02T09:49:30;8.73;;;7.20;;
75446;SDS011;64024;55.820;37.574;2023-04-02T09:54:33;9.90;;;7.40;;
75446;SDS011;64024;55.820;37.574;2023-04-02T10:02:41;10.90;;;7.88;;
75446;SDS011;64024;55.820;37.574;2023-04-02T10:05:15;11.30;;;8.30;;
75446;SDS011;64024;55.820;37.574;2023-04-02T10:07:45;10.10;;;7.80;;
75446;SDS011;64024;55.820;37.574;2023-04-02T10:10:20;10.68;;;7.80;;
75446;SDS011;64024;55.820;37.574;2023-04-02T10:15:52;9.68;;;7.20;;
75446;SDS011;64024;55.820;37.574;2023-04-02T10:21:17;7.70;;;5.80;;
75446;SDS011;64024;55.820;37.574;2023-04-02T10:23:47;8.50;;;7.30;;
75446;SDS011;64024;55.820;37.574;2023-04-02T10:26:26;9.82;;;7.10;;
75446;SDS011;64024;55.820;37.574;2023-04-02T10:28:58;7.90;;;6.45;;
75446;SDS011;64024;55.820;37.574;2023-04-02T10:34:32;9.38;;;6.82;;
75446;SDS011;64024;55.820;37.574;2023-04-02T10:37:21;7.93;;;7.03;;
75446;SDS011;64024;55.820;37.574;2023-04-02T10:45:51;9.20;;;7.05;;
75446;SDS011;64024;55.820;37.574;2023-04-02T10:48:27;7.32;;;6.32;;
75446;SDS011;64024;55.820;37.574;2023-04-02T10:51:23;8.18;;;7.10;;
75446;SDS011;64024;55.820;37.574;2023-04-02T10:54:01;13.98;;;7.97;;
75446;SDS011;64024;55.820;37.574;2023-04-02T10:59:28;7.72;;;5.97;;
75446;SDS011;64024;55.820;37.574;2023-04-02T11:01:59;7.45;;;6.18;;
75446;SDS011;64024;55.820;37.574;2023-04-02T11:04:34;8.27;;;7.35;;
75446;SDS011;64024;55.820;37.574;2023-04-02T11:07:19;7.47;;;6.38;;
75446;SDS011;64024;55.820;37.574;2023-04-02T11:09:51;8.10;;;6.43;;
75446;SDS011;64024;55.820;37.574;2023-04-02T11:12:22;12.65;;;6.90;;
75446;SDS011;64024;55.820;37.574;2023-04-02T11:15:04;8.00;;;5.82;;
75446;SDS011;64024;55.820;37.574;2023-04-02T11:17:41;7.70;;;6.50;;
75446;SDS011;64024;55.820;37.574;2023-04-02T11:23:20;7.47;;;6.40;;
75446;SDS011;64024;55.820;37.574;2023-04-02T11:25:46;8.43;;;6.43;;
75446;SDS011;64024;55.820;37.574;2023-04-02T11:30:48;7.57;;;6.35;;
75446;SDS011;64024;55.820;37.574;2023-04-02T11:35:56;10.38;;;7.00;;
75446;SDS011;64024;55.820;37.574;2023-04-02T11:40:48;10.50;;;7.07;;
75446;SDS011;64024;55.820;37.574;2023-04-02T11:46:29;9.60;;;6.78;;
75446;SDS011;64024;55.820;37.574;2023-04-02T11:48:48;8.05;;;6.80;;
75446;SDS011;64024;55.820;37.574;2023-04-02T11:53:49;8.10;;;6.30;;
75446;SDS011;64024;55.820;37.574;2023-04-02T11:56:20;6.97;;;5.38;;
75446;SDS011;64024;55.820;37.574;2023-04-02T12:05:05;7.90;;;5.97;;
75446;SDS011;64024;55.820;37.574;2023-04-02T12:16:07;6.78;;;6.03;;
75446;SDS011;64024;55.820;37.574;2023-04-02T12:18:35;10.10;;;7.03;;
75446;SDS011;64024;55.820;37.574;2023-04-02T12:21:06;8.65;;;6.78;;
75446;SDS011;64024;55.820;37.574;2023-04-02T12:23:34;10.00;;;6.93;;
75446;SDS011;64024;55.820;37.574;2023-04-02T12:26:03;11.27;;;7.57;;
75446;SDS011;64024;55.820;37.574;2023-04-02T12:28:31;9.60;;;7.65;;
75446;SDS011;64024;55.820;37.574;2023-04-02T12:31:02;9.10;;;6.75;;
75446;SDS011;64024;55.820;37.574;2023-04-02T12:33:38;9.82;;;6.68;;
75446;SDS011;64024;55.820;37.574;2023-04-02T12:36:13;9.90;;;6.82;;
75446;SDS011;64024;55.820;37.574;2023-04-02T12:38:44;8.77;;;6.70;;
75446;SDS011;64024;55.820;37.574;2023-04-02T12:41:21;9.85;;;7.43;;
75446;SDS011;64024;55.820;37.574;2023-04-02T12:44:04;9.40;;;7.13;;
75446;SDS011;64024;55.820;37.574;2023-04-02T12:46:37;10.35;;;7.03;;
75446;SDS011;64024;55.820;37.574;2023-04-02T12:49:05;8.43;;;6.72;;
75446;SDS011;64024;55.820;37.574;2023-04-02T12:51:41;8.32;;;5.80;;
75446;SDS011;64024;55.820;37.574;2023-04-02T12:54:10;11.05;;;7.28;;
75446;SDS011;64024;55.820;37.574;2023-04-02T12:56:39;11.73;;;9.13;;
75446;SDS011;64024;55.820;37.574;2023-04-02T12:59:17;15.48;;;9.90;;
75446;SDS011;64024;55.820;37.574;2023-04-02T13:02:19;15.02;;;10.27;;
75446;SDS011;64024;55.820;37.574;2023-04-02T13:04:50;14.93;;;10.57;;
75446;SDS011;64024;55.820;37.574;2023-04-02T13:07:18;13.77;;;9.77;;
75446;SDS011;64024;55.820;37.574;2023-04-02T13:09:47;14.40;;;9.95;;
75446;SDS011;64024;55.820;37.574;2023-04-02T13:15:03;9.95;;;7.88;;
75446;SDS011;64024;55.820;37.574;2023-04-02T13:25:58;10.40;;;7.50;;
75446;SDS011;64024;55.820;37.574;2023-04-02T13:28:26;10.00;;;7.85;;
75446;SDS011;64024;55.820;37.574;2023-04-02T13:30:53;9.73;;;7.65;;
75446;SDS011;64024;55.820;37.574;2023-04-02T13:33:20;10.18;;;8.98;;
75446;SDS011;64024;55.820;37.574;2023-04-02T13:35:46;9.13;;;7.38;;
75446;SDS011;64024;55.820;37.574;2023-04-02T13:38:12;10.15;;;7.72;;
75446;SDS011;64024;55.820;37.574;2023-04-02T13:40:38;8.52;;;7.35;;
75446;SDS011;64024;55.820;37.574;2023-04-02T13:43:04;10.93;;;7.22;;
75446;SDS011;64024;55.820;37.574;2023-04-02T13:45:33;8.63;;;6.93;;
75446;SDS011;64024;55.820;37.574;2023-04-02T13:48:02;9.00;;;6.97;;
75446;SDS011;64024;55.820;37.574;2023-04-02T13:50:30;9.63;;;6.68;;
75446;SDS011;64024;55.820;37.574;2023-04-02T13:52:58;8.10;;;6.88;;
75446;SDS011;64024;55.820;37.574;2023-04-02T13:55:29;7.75;;;6.35;;
75446;SDS011;64024;55.820;37.574;2023-04-02T13:57:59;8.52;;;6.88;;
75446;SDS011;64024;55.820;37.574;2023-04-02T14:00:25;9.75;;;6.63;;
75446;SDS011;64024;55.820;37.574;2023-04-02T14:03:03;10.43;;;7.50;;
75446;SDS011;64024;55.820;37.574;2023-04-02T14:19:38;7.63;;;6.60;;
75446;SDS011;64024;55.820;37.574;2023-04-02T14:22:23;9.38;;;6.40;;
75446;SDS011;64024;55.820;37.574;2023-04-02T14:28:04;7.68;;;6.88;;
75446;SDS011;64024;55.820;37.574;2023-04-02T14:30:52;8.38;;;6.68;;
75446;SDS011;64024;55.820;37.574;2023-04-02T14:38:57;7.35;;;6.75;;
75446;SDS011;64024;55.820;37.574;2023-04-02T14:44:22;6.45;;;5.82;;
75446;SDS011;64024;55.820;37.574;2023-04-02T14:47:07;6.90;;;6.20;;
75446;SDS011;64024;55.820;37.574;2023-04-02T14:49:41;8.27;;;6.80;;
75446;SDS011;64024;55.820;37.574;2023-04-02T14:52:14;8.45;;;7.55;;
75446;SDS011;64024;55.820;37.574;2023-04-02T14:57:15;6.75;;;6.15;;
75446;SDS011;64024;55.820;37.574;2023-04-02T15:05:57;7.65;;;6.97;;
75446;SDS011;64024;55.820;37.574;2023-04-02T15:08:29;7.00;;;6.32;;
75446;SDS011;64024;55.820;37.574;2023-04-02T15:16:53;8.10;;;7.40;;
75446;SDS011;64024;55.820;37.574;2023-04-02T15:19:19;8.02;;;6.80;;
75446;SDS011;64024;55.820;37.574;2023-04-02T15:24:40;7.72;;;7.03;;
75446;SDS011;64024;55.820;37.574;2023-04-02T15:30:34;6.93;;;5.97;;
75446;SDS011;64024;55.820;37.574;2023-04-02T15:36:01;7.38;;;6.35;;
75446;SDS011;64024;55.820;37.574;2023-04-02T15:38:49;6.97;;;6.28;;
75446;SDS011;64024;55.820;37.574;2023-04-02T15:41:28;7.43;;;6.05;;
75446;SDS011;64024;55.820;37.574;2023-04-02T15:46:41;7.68;;;6.85;;
75446;SDS011;64024;55.820;37.574;2023-04-02T15:49:29;7.60;;;6.88;;
75446;SDS011;64024;55.820;37.574;2023-04-02T16:00:49;11.60;;;9.35;;
75446;SDS011;64024;55.820;37.574;2023-04-02T16:11:35;8.52;;;7.63;;
75446;SDS011;64024;55.820;37.574;2023-04-02T16:14:09;8.65;;;6.95;;
75446;SDS011;64024;55.820;37.574;2023-04-02T16:16:49;7.05;;;6.43;;
75446;SDS011;64024;55.820;37.574;2023-04-02T16:19:35;8.13;;;7.32;;
75446;SDS011;64024;55.820;37.574;2023-04-02T16:24:56;7.28;;;6.40;;
75446;SDS011;64024;55.820;37.574;2023-04-02T16:30:07;8.25;;;7.43;;
75446;SDS011;64024;55.820;37.574;2023-04-02T16:35:35;11.00;;;7.28;;
75446;SDS011;64024;55.820;37.574;2023-04-02T16:43:31;7.50;;;6.78;;
75446;SDS011;64024;55.820;37.574;2023-04-02T17:08:24;8.90;;;7.93;;
75446;SDS011;64024;55.820;37.574;2023-04-02T17:13:17;7.57;;;6.75;;
75446;SDS011;64024;55.820;37.574;2023-04-02T17:16:01;7.68;;;6.97;;
75446;SDS011;64024;55.820;37.574;2023-04-02T17:18:30;6.93;;;6.32;;
75446;SDS011;64024;55.820;37.574;2023-04-02T17:21:03;7.07;;;6.38;;
75446;SDS011;64024;55.820;37.574;2023-04-02T17:23:33;7.47;;;6.78;;
75446;SDS011;64024;55.820;37.574;2023-04-02T17:26:09;7.75;;;7.05;;
75446;SDS011;64024;55.820;37.574;2023-04-02T17:28:38;8.30;;;7.50;;
75446;SDS011;64024;55.820;37.574;2023-04-02T17:31:09;8.48;;;7.68;;
75446;SDS011;64024;55.820;37.574;2023-04-02T17:33:41;7.85;;;6.95;;
75446;SDS011;64024;55.820;37.574;2023-04-02T17:36:14;8.50;;;7.70;;
75446;SDS011;64024;55.820;37.574;2023-04-02T17:41:39;8.38;;;7.57;;
75446;SDS011;64024;55.820;37.574;2023-04-02T17:49:20;7.75;;;7.05;;
75446;SDS011;64024;55.820;37.574;2023-04-02T17:52:06;7.70;;;7.00;;
75446;SDS011;64024;55.820;37.574;2023-04-02T17:55:20;7.45;;;6.78;;
75446;SDS011;64024;55.820;37.574;2023-04-02T17:58:07;8.27;;;7.55;;
75446;SDS011;64024;55.820;37.574;2023-04-02T18:06:12;7.72;;;7.03;;
75446;SDS011;64024;55.820;37.574;2023-04-02T18:09:38;7.65;;;6.85;;
75446;SDS011;64024;55.820;37.574;2023-04-02T18:20:41;8.40;;;7.60;;
75446;SDS011;64024;55.820;37.574;2023-04-02T18:26:39;7.70;;;7.03;;
75446;SDS011;64024;55.820;37.574;2023-04-02T18:29:39;7.43;;;6.72;;
75446;SDS011;64024;55.820;37.574;2023-04-02T18:35:33;8.00;;;7.30;;
75446;SDS011;64024;55.820;37.574;2023-04-02T18:43:49;7.43;;;6.72;;
75446;SDS011;64024;55.820;37.574;2023-04-02T18:46:32;7.40;;;6.78;;
75446;SDS011;64024;55.820;37.574;2023-04-02T18:49:26;8.13;;;7.32;;
75446;SDS011;64024;55.820;37.574;2023-04-02T18:51:59;7.22;;;6.32;;
75446;SDS011;64024;55.820;37.574;2023-04-02T18:54:34;7.47;;;6.78;;
75446;SDS011;64024;55.820;37.574;2023-04-02T18:57:10;7.97;;;7.10;;
75446;SDS011;64024;55.820;37.574;2023-04-02T19:00:40;8.73;;;7.93;;
75446;SDS011;64024;55.820;37.574;2023-04-02T19:05:20;8.60;;;7.70;;
75446;SDS011;64024;55.820;37.574;2023-04-02T19:07:48;7.13;;;6.45;;
75446;SDS011;64024;55.820;37.574;2023-04-02T19:10:35;7.38;;;6.68;;
75446;SDS011;64024;55.820;37.574;2023-04-02T19:13:36;9.32;;;6.22;;
75446;SDS011;64024;55.820;37.574;2023-04-02T19:24:00;5.82;;;5.18;;
75446;SDS011;64024;55.820;37.574;2023-04-02T19:32:41;6.60;;;6.00;;
75446;SDS011;64024;55.820;37.574;2023-04-02T19:35:22;6.22;;;5.63;;
75446;SDS011;64024;55.820;37.574;2023-04-02T19:40:41;6.15;;;5.32;;
75446;SDS011;64024;55.820;37.574;2023-04-02T19:43:15;6.10;;;5.30;;
75446;SDS011;64024;55.820;37.574;2023-04-02T19:45:43;5.80;;;4.90;;
75446;SDS011;64024;55.820;37.574;2023-04-02T19:48:24;6.07;;;5.20;;
75446;SDS011;64024;55.820;37.574;2023-04-02T19:50:54;6.28;;;5.65;;
75446;SDS011;64024;55.820;37.574;2023-04-02T19:53:20;6.25;;;5.65;;
75446;SDS011;64024;55.820;37.574;2023-04-02T19:55:47;6.75;;;5.50;;
75446;SDS011;64024;55.820;37.574;2023-04-02T19:58:26;5.90;;;5.40;;
75446;SDS011;64024;55.820;37.574;2023-04-02T20:01:00;6.25;;;5.68;;
75446;SDS011;64024;55.820;37.574;2023-04-02T20:03:27;6.40;;;5.80;;
75446;SDS011;64024;55.820;37.574;2023-04-02T20:08:21;6.30;;;5.30;;
75446;SDS011;64024;55.820;37.574;2023-04-02T20:10:47;7.55;;;6.80;;
75446;SDS011;64024;55.820;37.574;2023-04-02T20:13:13;6.85;;;5.70;;
75446;SDS011;64024;55.820;37.574;2023-04-02T20:15:39;7.95;;;6.95;;
75446;SDS011;64024;55.820;37.574;2023-04-02T20:18:06;7.47;;;6.72;;
75446;SDS011;64024;55.820;37.574;2023-04-02T20:20:34;6.78;;;6.18;;
75446;SDS011;64024;55.820;37.574;2023-04-02T20:23:02;7.30;;;6.60;;
75446;SDS011;64024;55.820;37.574;2023-04-02T20:25:28;7.05;;;6.45;;